createdAt,value
2022-11-05T00:01:41.424Z,5.53
2022-11-05T00:04:30.913Z,5.23
2022-11-05T00:07:19.454Z,5.45
2022-11-05T00:09:47.736Z,4.93
2022-11-05T00:12:33.832Z,5.30
2022-11-05T00:15:19.683Z,5.23
2022-11-05T00:17:46.694Z,4.70
2022-11-05T00:20:13.728Z,4.63
2022-11-05T00:22:59.556Z,4.50
2022-11-05T00:25:27.993Z,4.03
2022-11-05T00:27:55.030Z,4.20
2022-11-05T00:30:23.510Z,4.67
2022-11-05T00:32:51.132Z,3.90
2022-11-05T00:35:19.476Z,4.63
2022-11-05T00:37:50.014Z,4.37
2022-11-05T00:40:17.701Z,4.47
2022-11-05T00:43:03.337Z,4.37
2022-11-05T00:45:31.434Z,4.07
2022-11-05T00:48:17.010Z,4.37
2022-11-05T00:50:44.012Z,4.30
2022-11-05T00:53:11.287Z,3.97
2022-11-05T00:55:42.327Z,4.03
2022-11-05T00:58:12.242Z,4.03
2022-11-05T01:00:41.111Z,3.53
2022-11-05T01:03:09.843Z,3.77
2022-11-05T01:05:44.691Z,3.37
2022-11-05T01:08:12.753Z,3.60
2022-11-05T01:10:43.945Z,3.57
2022-11-05T01:13:13.112Z,3.80
2022-11-05T01:15:41.070Z,3.30
2022-11-05T01:18:08.454Z,3.87
2022-11-05T01:20:35.482Z,3.30
2022-11-05T01:23:02.510Z,3.40
2022-11-05T01:25:29.488Z,3.70
2022-11-05T01:27:56.482Z,3.73
2022-11-05T01:30:23.829Z,3.23
2022-11-05T01:32:51.006Z,3.40
2022-11-05T01:35:18.361Z,3.53
2022-11-05T01:37:45.365Z,3.30
2022-11-05T01:40:13.726Z,2.87
2022-11-05T01:42:40.693Z,3.23
2022-11-05T01:45:07.706Z,3.20
2022-11-05T01:47:57.738Z,3.20
2022-11-05T01:50:29.251Z,3.00
2022-11-05T01:53:02.151Z,3.27
2022-11-05T01:55:32.325Z,3.23
2022-11-05T01:57:59.962Z,3.47
2022-11-05T02:00:27.899Z,3.30
2022-11-05T02:02:55.032Z,3.20
2022-11-05T02:05:22.222Z,3.00
2022-11-05T02:07:49.632Z,3.10
2022-11-05T02:10:20.356Z,3.27
2022-11-05T02:12:48.451Z,2.80
2022-11-05T02:15:17.417Z,3.07
2022-11-05T02:17:44.376Z,3.10
2022-11-05T02:20:17.340Z,2.97
2022-11-05T02:22:53.280Z,3.20
2022-11-05T02:25:23.308Z,3.00
2022-11-05T02:28:02.433Z,2.90
2022-11-05T02:30:39.577Z,3.10
2022-11-05T02:33:14.038Z,2.90
2022-11-05T02:35:56.403Z,3.50
2022-11-05T02:38:23.356Z,3.30
2022-11-05T02:40:55.764Z,3.27
2022-11-05T02:43:37.826Z,2.93
2022-11-05T02:46:21.925Z,3.30
2022-11-05T02:48:58.888Z,3.23
2022-11-05T02:51:41.165Z,3.63
2022-11-05T02:54:11.134Z,3.33
2022-11-05T02:56:40.701Z,3.50
2022-11-05T02:59:07.684Z,3.23
2022-11-05T03:01:35.918Z,3.40
2022-11-05T03:04:05.028Z,3.60
2022-11-05T03:06:47.156Z,3.77
2022-11-05T03:09:20.140Z,3.80
2022-11-05T03:11:59.058Z,3.97
2022-11-05T03:14:38.391Z,3.70
2022-11-05T03:17:10.752Z,3.87
2022-11-05T03:19:41.192Z,3.87
2022-11-05T03:22:16.771Z,3.93
2022-11-05T03:24:46.857Z,4.40
2022-11-05T03:27:15.704Z,3.67
2022-11-05T03:29:51.913Z,4.10
2022-11-05T03:32:20.534Z,3.70
2022-11-05T03:34:49.098Z,3.73
2022-11-05T03:37:18.336Z,3.60
2022-11-05T03:39:50.357Z,3.30
2022-11-05T03:42:19.032Z,3.30
2022-11-05T03:44:49.013Z,3.73
2022-11-05T03:47:17.550Z,2.90
2022-11-05T03:49:49.300Z,3.53
2022-11-05T03:52:17.929Z,3.30
2022-11-05T03:54:45.347Z,3.73
2022-11-05T03:57:16.194Z,3.97
2022-11-05T03:59:44.598Z,3.97
2022-11-05T04:02:13.096Z,3.63
2022-11-05T04:04:40.429Z,4.50
2022-11-05T04:07:26.180Z,4.10
2022-11-05T04:10:12.064Z,4.40
2022-11-05T04:12:57.896Z,4.43
2022-11-05T04:15:24.859Z,4.90
2022-11-05T04:17:51.994Z,4.87
2022-11-05T04:20:37.850Z,5.30
2022-11-05T04:23:25.205Z,4.90
2022-11-05T04:25:52.383Z,6.53
2022-11-05T04:28:19.342Z,6.13
2022-11-05T04:30:46.355Z,5.90
2022-11-05T04:33:17.552Z,5.93
2022-11-05T04:35:48.262Z,7.20
2022-11-05T04:38:16.854Z,8.00
2022-11-05T04:40:44.359Z,8.33
2022-11-05T04:43:15.455Z,8.50
2022-11-05T04:45:43.083Z,9.10
2022-11-05T04:48:10.118Z,9.23
2022-11-05T04:50:37.591Z,9.90
2022-11-05T04:53:04.546Z,10.00
2022-11-05T04:55:31.633Z,9.97
2022-11-05T04:57:58.632Z,10.60
2022-11-05T05:00:25.708Z,12.30
2022-11-05T05:02:52.818Z,12.77
2022-11-05T05:05:21.381Z,16.88
2022-11-05T05:07:48.347Z,14.63
2022-11-05T05:10:15.335Z,13.33
2022-11-05T05:12:42.309Z,14.40
2022-11-05T05:15:10.163Z,15.17
2022-11-05T05:17:37.177Z,15.93
2022-11-05T05:20:23.021Z,15.50
2022-11-05T05:22:53.479Z,15.90
2022-11-05T05:25:20.794Z,16.50
2022-11-05T05:27:47.756Z,16.77
2022-11-05T05:30:14.790Z,15.43
2022-11-05T05:32:41.792Z,14.93
2022-11-05T05:35:09.016Z,16.27
2022-11-05T05:37:35.971Z,17.47
2022-11-05T05:40:02.989Z,20.92
2022-11-05T05:42:29.952Z,17.33
2022-11-05T05:44:56.929Z,17.17
2022-11-05T05:47:23.955Z,17.97
2022-11-05T05:49:50.925Z,18.40
2022-11-05T05:52:17.900Z,18.53
2022-11-05T05:54:44.970Z,18.83
2022-11-05T05:57:11.964Z,19.50
2022-11-05T05:59:38.934Z,19.83
2022-11-05T06:02:06.015Z,21.43
2022-11-05T06:04:33.141Z,21.23
2022-11-05T06:07:00.108Z,21.83
2022-11-05T06:09:27.072Z,21.47
2022-11-05T06:11:54.028Z,21.50
2022-11-05T06:14:21.008Z,21.07
2022-11-05T06:16:48.042Z,22.87
2022-11-05T06:19:15.001Z,20.73
2022-11-05T06:21:41.969Z,24.27
2022-11-05T06:24:09.239Z,22.90
2022-11-05T06:26:42.506Z,22.53
2022-11-05T06:29:10.549Z,23.07
2022-11-05T06:31:37.602Z,22.53
2022-11-05T06:34:04.718Z,22.30
2022-11-05T06:36:31.678Z,24.77
2022-11-05T06:38:58.645Z,22.93
2022-11-05T06:41:25.702Z,23.67
2022-11-05T06:43:52.738Z,23.97
2022-11-05T06:46:19.778Z,24.53
2022-11-05T06:48:47.793Z,24.37
2022-11-05T06:51:15.325Z,23.87
2022-11-05T06:53:42.447Z,23.93
2022-11-05T06:56:09.812Z,24.90
2022-11-05T06:58:36.841Z,23.53
2022-11-05T07:01:08.486Z,22.90
2022-11-05T07:03:36.152Z,23.43
2022-11-05T07:06:04.248Z,21.27
2022-11-05T07:08:32.385Z,20.80
2022-11-05T07:10:59.610Z,19.57
2022-11-05T07:13:26.848Z,19.87
2022-11-05T07:15:53.990Z,18.60
2022-11-05T07:18:21.193Z,17.80
2022-11-05T07:20:49.082Z,18.87
2022-11-05T07:23:16.386Z,18.77
2022-11-05T07:25:43.490Z,18.80
2022-11-05T07:28:10.829Z,19.37
2022-11-05T07:30:37.867Z,19.97
2022-11-05T07:33:05.043Z,19.53
2022-11-05T07:35:32.071Z,18.87
2022-11-05T07:37:59.446Z,19.43
2022-11-05T07:40:27.531Z,18.13
2022-11-05T07:42:55.651Z,20.00
2022-11-05T07:45:23.408Z,19.73
2022-11-05T07:47:54.724Z,20.37
2022-11-05T07:50:22.628Z,19.67
2022-11-05T07:52:49.832Z,18.40
2022-11-05T07:55:17.325Z,19.17
2022-11-05T07:57:44.832Z,16.73
2022-11-05T08:00:13.997Z,17.83
2022-11-05T08:02:41.439Z,17.07
2022-11-05T08:05:09.167Z,15.83
2022-11-05T08:07:36.335Z,11.57
2022-11-05T08:10:04.209Z,10.40
2022-11-05T08:12:32.685Z,9.77
2022-11-05T08:14:59.717Z,11.18
2022-11-05T08:17:26.764Z,9.37
2022-11-05T08:19:53.746Z,8.50
2022-11-05T08:22:20.741Z,7.30
2022-11-05T08:24:47.827Z,6.43
2022-11-05T08:27:14.796Z,6.53
2022-11-05T08:29:41.785Z,6.50
2022-11-05T08:32:08.758Z,6.40
2022-11-05T08:34:35.741Z,6.57
2022-11-05T08:37:03.044Z,6.27
2022-11-05T08:39:30.099Z,7.30
2022-11-05T08:41:57.082Z,6.30
2022-11-05T08:44:24.153Z,6.80
2022-11-05T08:46:51.186Z,6.60
2022-11-05T08:49:18.153Z,6.20
2022-11-05T08:51:45.538Z,5.83
2022-11-05T08:54:13.232Z,6.80
2022-11-05T08:56:40.531Z,7.50
2022-11-05T08:59:07.617Z,6.93
2022-11-05T09:01:34.995Z,7.23
2022-11-05T09:04:02.106Z,6.80
2022-11-05T09:06:29.246Z,6.97
2022-11-05T09:08:56.466Z,8.13
2022-11-05T09:11:33.162Z,8.30
2022-11-05T09:14:10.587Z,7.30
2022-11-05T09:16:37.592Z,7.87
2022-11-05T09:19:05.009Z,8.20
2022-11-05T09:21:32.227Z,8.67
2022-11-05T09:23:59.296Z,9.03
2022-11-05T09:26:27.041Z,10.07
2022-11-05T09:28:54.068Z,10.53
2022-11-05T09:31:21.043Z,10.43
2022-11-05T09:33:48.025Z,12.70
2022-11-05T09:36:15.857Z,10.70
2022-11-05T09:38:42.847Z,10.53
2022-11-05T09:41:15.492Z,11.50
2022-11-05T09:43:44.100Z,12.00
2022-11-05T09:46:17.941Z,12.73
2022-11-05T09:48:46.338Z,12.70
2022-11-05T09:51:20.730Z,13.23
2022-11-05T09:53:51.303Z,12.97
2022-11-05T09:56:23.848Z,14.40
2022-11-05T09:58:53.701Z,13.97
2022-11-05T10:01:26.139Z,13.13
2022-11-05T10:03:55.154Z,12.30
2022-11-05T10:06:23.536Z,13.40
2022-11-05T10:08:53.390Z,12.30
2022-11-05T10:11:22.658Z,11.83
2022-11-05T10:13:53.133Z,12.80
2022-11-05T10:16:25.497Z,11.53
2022-11-05T10:18:59.600Z,10.43
2022-11-05T10:21:51.353Z,10.50
2022-11-05T10:24:18.601Z,10.43
2022-11-05T10:26:50.419Z,10.87
2022-11-05T10:29:22.753Z,10.30
2022-11-05T10:31:50.020Z,11.43
2022-11-05T10:34:17.784Z,10.83
2022-11-05T10:36:44.798Z,10.23
2022-11-05T10:39:16.288Z,9.67
2022-11-05T10:41:52.514Z,10.17
2022-11-05T10:44:22.655Z,8.77
2022-11-05T10:46:55.944Z,8.63
2022-11-05T10:49:22.929Z,8.03
2022-11-05T10:51:54.171Z,8.23
2022-11-05T10:54:22.472Z,8.30
2022-11-05T10:56:49.832Z,8.40
2022-11-05T10:59:35.055Z,7.87
2022-11-05T11:02:04.905Z,9.00
2022-11-05T11:04:37.478Z,8.57
2022-11-05T11:07:05.516Z,8.47
2022-11-05T11:09:33.937Z,9.53
2022-11-05T11:12:02.896Z,10.20
2022-11-05T11:14:30.509Z,10.77
2022-11-05T11:17:15.996Z,10.23
2022-11-05T11:19:42.989Z,10.67
2022-11-05T11:22:10.827Z,9.50
2022-11-05T11:24:39.769Z,9.00
2022-11-05T11:27:27.442Z,10.10
2022-11-05T11:30:05.346Z,10.13
2022-11-05T11:32:38.163Z,11.18
2022-11-05T11:35:07.093Z,9.93
2022-11-05T11:37:35.566Z,10.23
2022-11-05T11:40:13.533Z,9.67
2022-11-05T11:42:41.505Z,8.57
2022-11-05T11:45:15.769Z,8.70
2022-11-05T11:47:47.500Z,9.40
2022-11-05T11:50:33.207Z,9.77
2022-11-05T11:53:19.069Z,9.87
2022-11-05T11:55:58.256Z,9.17
2022-11-05T11:58:35.982Z,8.80
2022-11-05T12:01:18.030Z,7.67
2022-11-05T12:04:00.101Z,8.20
2022-11-05T12:06:35.060Z,7.60
2022-11-05T12:09:06.978Z,7.63
2022-11-05T12:11:36.933Z,8.07
2022-11-05T12:14:19.125Z,7.77
2022-11-05T12:16:53.373Z,7.00
2022-11-05T12:19:29.434Z,6.87
2022-11-05T12:22:05.630Z,6.07
2022-11-05T12:24:32.586Z,6.03
2022-11-05T12:27:11.232Z,6.63
2022-11-05T12:29:43.809Z,6.80
2022-11-05T12:32:26.204Z,6.57
2022-11-05T12:35:13.478Z,7.00
2022-11-05T12:37:40.429Z,6.70
2022-11-05T12:40:13.223Z,6.13
2022-11-05T12:42:49.131Z,5.90
2022-11-05T12:45:23.164Z,6.47
2022-11-05T12:47:56.977Z,7.22
2022-11-05T12:50:42.584Z,6.50
2022-11-05T12:53:33.533Z,6.60
2022-11-05T12:56:02.315Z,6.30
2022-11-05T12:58:34.429Z,7.13
2022-11-05T13:01:04.517Z,6.27
2022-11-05T13:03:38.133Z,6.43
2022-11-05T13:06:16.515Z,5.60
2022-11-05T13:08:53.588Z,5.10
2022-11-05T13:11:22.996Z,4.83
2022-11-05T13:13:53.037Z,5.27
2022-11-05T13:16:26.520Z,4.80
2022-11-05T13:19:00.021Z,5.60
2022-11-05T13:21:28.936Z,5.50
2022-11-05T13:24:02.285Z,4.83
2022-11-05T13:26:35.153Z,4.73
2022-11-05T13:29:08.334Z,6.90
2022-11-05T13:31:44.011Z,6.43
2022-11-05T13:34:12.416Z,4.47
2022-11-05T13:37:05.591Z,4.40
2022-11-05T13:39:36.318Z,4.77
2022-11-05T13:42:03.263Z,4.77
2022-11-05T13:44:33.085Z,5.00
2022-11-05T13:47:12.226Z,5.10
2022-11-05T13:49:52.490Z,5.10
2022-11-05T13:52:22.587Z,5.37
2022-11-05T13:55:06.702Z,5.23
2022-11-05T13:57:39.781Z,5.33
2022-11-05T14:00:23.861Z,4.83
2022-11-05T14:03:02.169Z,5.43
2022-11-05T14:05:31.225Z,5.83
2022-11-05T14:08:00.057Z,6.75
2022-11-05T14:10:38.254Z,6.80
2022-11-05T14:13:17.553Z,7.00
2022-11-05T14:16:23.056Z,5.70
2022-11-05T14:18:54.852Z,6.57
2022-11-05T14:21:27.631Z,7.60
2022-11-05T14:23:58.452Z,6.30
2022-11-05T14:26:29.985Z,6.73
2022-11-05T14:29:06.007Z,6.23
2022-11-05T14:32:02.522Z,6.13
2022-11-05T14:34:21.869Z,6.67
2022-11-05T14:37:07.597Z,6.47
2022-11-05T14:39:34.600Z,6.90
2022-11-05T14:42:23.310Z,6.63
2022-11-05T14:44:58.137Z,6.87
2022-11-05T14:47:26.792Z,6.47
2022-11-05T14:49:55.842Z,7.23
2022-11-05T14:52:22.838Z,6.27
2022-11-05T14:54:51.743Z,6.27
2022-11-05T14:57:38.927Z,6.57
2022-11-05T15:00:06.924Z,5.77
2022-11-05T15:02:38.232Z,7.20
2022-11-05T15:05:24.105Z,6.47
2022-11-05T15:07:56.507Z,6.00
2022-11-05T15:10:23.761Z,5.50
2022-11-05T15:12:57.189Z,5.70
2022-11-05T15:15:27.519Z,6.50
2022-11-05T15:18:13.723Z,4.87
2022-11-05T15:20:43.954Z,6.00
2022-11-05T15:23:13.536Z,5.70
2022-11-05T15:25:53.622Z,5.77
2022-11-05T15:28:37.880Z,5.88
2022-11-05T15:31:06.537Z,5.30
2022-11-05T15:33:33.603Z,5.43
2022-11-05T15:36:15.975Z,5.37
2022-11-05T15:38:56.586Z,5.80
2022-11-05T15:41:33.620Z,5.70
2022-11-05T15:44:02.854Z,6.00
2022-11-05T15:46:30.047Z,5.20
2022-11-05T15:49:08.468Z,5.43
2022-11-05T15:51:36.046Z,5.83
2022-11-05T15:54:28.959Z,5.70
2022-11-05T15:56:55.129Z,5.53
2022-11-05T15:59:23.452Z,5.40
2022-11-05T16:01:52.853Z,6.17
2022-11-05T16:04:19.899Z,7.63
2022-11-05T16:06:48.379Z,7.28
2022-11-05T16:09:21.199Z,5.73
2022-11-05T16:11:48.183Z,5.57
2022-11-05T16:14:17.182Z,4.70
2022-11-05T16:16:44.539Z,4.90
2022-11-05T16:19:33.235Z,5.13
2022-11-05T16:22:05.834Z,5.17
2022-11-05T16:24:32.917Z,4.70
2022-11-05T16:27:03.745Z,5.23
2022-11-05T16:29:41.792Z,5.67
2022-11-05T16:32:29.821Z,6.30
2022-11-05T16:34:59.705Z,6.63
2022-11-05T16:37:27.682Z,6.80
2022-11-05T16:39:54.948Z,6.03
2022-11-05T16:42:25.886Z,6.43
2022-11-05T16:44:53.695Z,6.40
2022-11-05T16:47:21.008Z,6.80
2022-11-05T16:49:48.742Z,6.80
2022-11-05T16:52:15.751Z,6.80
2022-11-05T16:54:43.125Z,6.77
2022-11-05T16:57:27.798Z,6.80
2022-11-05T16:59:55.368Z,8.50
2022-11-05T17:02:22.501Z,9.93
2022-11-05T17:04:49.709Z,13.07
2022-11-05T17:07:16.805Z,15.20
2022-11-05T17:09:43.901Z,11.63
2022-11-05T17:12:13.955Z,11.90
2022-11-05T17:14:40.957Z,12.10
2022-11-05T17:17:07.960Z,12.87
2022-11-05T17:19:35.011Z,14.03
2022-11-05T17:22:02.045Z,13.47
2022-11-05T17:24:29.024Z,15.57
2022-11-05T17:26:55.981Z,17.33
2022-11-05T17:29:22.966Z,15.80
2022-11-05T17:31:49.961Z,14.60
2022-11-05T17:34:17.531Z,14.47
2022-11-05T17:36:44.562Z,16.23
2022-11-05T17:39:12.652Z,15.17
2022-11-05T17:41:39.673Z,15.87
2022-11-05T17:44:06.650Z,15.97
2022-11-05T17:46:33.654Z,14.63
2022-11-05T17:49:00.676Z,14.87
2022-11-05T17:51:27.671Z,14.27
2022-11-05T17:53:54.723Z,15.60
2022-11-05T17:56:32.498Z,15.07
2022-11-05T17:59:01.941Z,15.77
2022-11-05T18:01:30.317Z,18.77
2022-11-05T18:03:57.410Z,17.67
2022-11-05T18:06:24.419Z,17.47
2022-11-05T18:08:51.411Z,16.17
2022-11-05T18:11:18.392Z,16.50
2022-11-05T18:13:45.437Z,17.00
2022-11-05T18:16:12.415Z,17.10
2022-11-05T18:18:39.402Z,18.17
2022-11-05T18:21:06.521Z,16.27
2022-11-05T18:23:33.578Z,16.60
2022-11-05T18:26:00.608Z,17.33
2022-11-05T18:28:30.045Z,19.07
2022-11-05T18:30:57.024Z,18.83
2022-11-05T18:33:24.076Z,17.77
2022-11-05T18:35:51.038Z,18.23
2022-11-05T18:38:18.370Z,17.73
2022-11-05T18:40:45.358Z,16.40
2022-11-05T18:43:12.651Z,16.60
2022-11-05T18:45:39.963Z,17.67
2022-11-05T18:48:07.142Z,18.60
2022-11-05T18:50:34.136Z,18.93
2022-11-05T18:53:01.100Z,18.63
2022-11-05T18:55:28.073Z,17.53
2022-11-05T18:57:55.076Z,18.43
2022-11-05T19:00:22.250Z,18.73
2022-11-05T19:02:49.294Z,17.00
2022-11-05T19:05:31.927Z,17.40
2022-11-05T19:07:59.061Z,16.43
2022-11-05T19:10:26.095Z,14.93
2022-11-05T19:12:53.082Z,16.03
2022-11-05T19:15:20.052Z,16.33
2022-11-05T19:17:47.173Z,16.33
2022-11-05T19:20:14.168Z,16.27
2022-11-05T19:22:41.152Z,19.20
2022-11-05T19:25:08.377Z,16.40
2022-11-05T19:27:37.387Z,15.33
2022-11-05T19:30:05.213Z,14.93
2022-11-05T19:32:32.282Z,17.40
2022-11-05T19:34:59.247Z,16.50
2022-11-05T19:37:26.220Z,17.97
2022-11-05T19:39:53.200Z,16.43
2022-11-05T19:42:20.167Z,16.57
2022-11-05T19:44:47.148Z,15.43
2022-11-05T19:47:14.117Z,15.50
2022-11-05T19:49:41.134Z,16.40
2022-11-05T19:52:08.098Z,15.27
2022-11-05T19:54:35.887Z,16.37
2022-11-05T19:57:02.944Z,20.20
2022-11-05T19:59:30.009Z,18.00
2022-11-05T20:01:57.035Z,20.55
2022-11-05T20:04:24.053Z,19.03
2022-11-05T20:06:51.023Z,19.83
2022-11-05T20:09:22.963Z,21.87
2022-11-05T20:11:50.833Z,21.67
2022-11-05T20:14:17.958Z,19.47
2022-11-05T20:16:45.963Z,19.83
2022-11-05T20:19:18.391Z,20.03
2022-11-05T20:21:45.888Z,19.33
2022-11-05T20:24:15.246Z,18.67
2022-11-05T20:26:45.713Z,17.43
2022-11-05T20:29:12.921Z,17.40
2022-11-05T20:31:39.939Z,18.57
2022-11-05T20:34:06.965Z,16.37
2022-11-05T20:36:33.955Z,16.30
2022-11-05T20:39:02.712Z,16.37
2022-11-05T20:41:30.604Z,16.63
2022-11-05T20:43:57.713Z,20.33
2022-11-05T20:46:25.090Z,17.67
2022-11-05T20:48:52.496Z,19.23
2022-11-05T20:51:21.697Z,21.87
2022-11-05T20:53:49.198Z,21.43
2022-11-05T20:56:17.674Z,20.23
2022-11-05T20:58:44.673Z,21.40
2022-11-05T21:01:12.671Z,20.10
2022-11-05T21:03:40.256Z,19.30
2022-11-05T21:06:07.590Z,20.00
2022-11-05T21:08:34.885Z,19.00
2022-11-05T21:11:02.397Z,19.13
2022-11-05T21:13:29.527Z,18.70
2022-11-05T21:15:57.552Z,17.53
2022-11-05T21:18:29.490Z,17.70
2022-11-05T21:20:56.790Z,18.80
2022-11-05T21:23:24.137Z,18.83
2022-11-05T21:25:51.360Z,18.57
2022-11-05T21:28:18.363Z,18.57
2022-11-05T21:30:46.313Z,18.87
2022-11-05T21:33:14.358Z,17.47
2022-11-05T21:35:43.797Z,15.50
2022-11-05T21:38:11.806Z,16.83
2022-11-05T21:40:39.030Z,15.17
2022-11-05T21:43:06.324Z,15.53
2022-11-05T21:45:33.673Z,16.37
2022-11-05T21:48:00.726Z,16.83
2022-11-05T21:50:46.488Z,16.67
2022-11-05T21:53:33.032Z,17.33
2022-11-05T21:56:18.868Z,17.27
2022-11-05T21:59:04.773Z,17.10
2022-11-05T22:01:31.867Z,17.27
2022-11-05T22:04:02.857Z,20.02
2022-11-05T22:06:32.479Z,16.07
2022-11-05T22:08:59.460Z,15.57
2022-11-05T22:11:26.450Z,14.70
2022-11-05T22:13:53.630Z,16.00
2022-11-05T22:16:20.689Z,14.67
2022-11-05T22:18:47.714Z,15.83
2022-11-05T22:21:18.798Z,15.77
2022-11-05T22:23:45.785Z,18.67
2022-11-05T22:26:12.858Z,18.17
2022-11-05T22:28:39.853Z,19.53
2022-11-05T22:31:12.305Z,19.57
2022-11-05T22:33:39.274Z,18.10
2022-11-05T22:36:06.466Z,17.63
2022-11-05T22:38:33.530Z,18.20
2022-11-05T22:41:00.652Z,18.47
2022-11-05T22:43:27.649Z,18.53
2022-11-05T22:45:54.654Z,20.00
2022-11-05T22:48:21.682Z,19.67
2022-11-05T22:50:48.674Z,19.57
2022-11-05T22:53:15.650Z,19.73
2022-11-05T22:55:42.600Z,19.47
2022-11-05T22:58:09.787Z,18.40
2022-11-05T23:00:37.788Z,18.17
2022-11-05T23:03:06.016Z,17.47
2022-11-05T23:05:33.104Z,18.23
2022-11-05T23:08:18.693Z,17.27
2022-11-05T23:11:04.448Z,16.10
2022-11-05T23:13:31.449Z,14.40
2022-11-05T23:16:17.012Z,15.23
2022-11-05T23:19:02.856Z,14.63
2022-11-05T23:21:48.789Z,14.77
2022-11-05T23:24:15.814Z,16.53
2022-11-05T23:26:51.976Z,17.43
2022-11-05T23:29:20.269Z,16.47
2022-11-05T23:32:06.016Z,17.23
2022-11-05T23:34:33.050Z,16.43
2022-11-05T23:37:18.789Z,16.83
2022-11-05T23:39:45.854Z,16.20
2022-11-05T23:42:31.744Z,16.30
2022-11-05T23:45:17.818Z,15.00
2022-11-05T23:48:03.696Z,14.57
2022-11-05T23:50:34.468Z,15.50
2022-11-05T23:53:05.487Z,14.27
2022-11-05T23:55:32.452Z,14.63
2022-11-05T23:57:59.421Z,12.70
